Time;durP1;ratioP1;P1;durP2;ratioP2;P2;SDS_P1;SDS_P2;PMS_P1;PMS_P2;Temp;Humidity;BMP_temperature;BMP_pressure;BME280_temperature;BME280_humidity;BME280_pressure;Samples;Min_cycle;Max_cycle;Signal;HPM_P1;HPM_P2
2021/11/20 00:01:14;;;;;;;30.20;17.63;;;;;;;;;;5036043;28;20504;-88
2021/11/20 00:03:44;;;;;;;28.70;15.60;;;;;;;;;;5036170;28;20029;-87
2021/11/20 00:06:10;;;;;;;29.00;15.15;;;;;;;;;;5049520;28;20087;-84
2021/11/20 00:08:36;;;;;;;31.35;14.60;;;;;;;;;;5042312;28;20411;-85
2021/11/20 00:11:04;;;;;;;30.00;16.67;;;;;;;;;;5039087;28;20021;-83
2021/11/20 00:13:30;;;;;;;31.73;16.77;;;;;;;;;;5055890;28;20052;-87
2021/11/20 00:15:58;;;;;;;31.27;17.23;;;;;;;;;;5052817;28;20104;-85
2021/11/20 00:18:24;;;;;;;31.90;15.18;;;;;;;;;;5041128;28;20040;-85
2021/11/20 00:20:55;;;;;;;30.10;16.88;;;;;;;;;;5039586;28;20028;-87
2021/11/20 00:23:23;;;;;;;30.30;15.82;;;;;;;;;;5038254;28;20041;-86
2021/11/20 00:25:56;;;;;;;27.25;15.50;;;;;;;;;;5036370;28;20516;-84
2021/11/20 00:28:31;;;;;;;34.63;17.67;;;;;;;;;;5050820;28;20393;-88
2021/11/20 00:30:59;;;;;;;29.70;15.93;;;;;;;;;;5028455;28;20086;-83
2021/11/20 00:33:27;;;;;;;30.52;17.25;;;;;;;;;;5038552;28;20029;-85
2021/11/20 00:35:54;;;;;;;31.17;17.05;;;;;;;;;;5030095;28;20029;-85
2021/11/20 00:38:21;;;;;;;31.70;16.80;;;;;;;;;;5042134;28;20079;-87
2021/11/20 00:40:56;;;;;;;31.02;17.50;;;;;;;;;;5036207;28;20029;-87
2021/11/20 00:43:26;;;;;;;30.67;17.08;;;;;;;;;;5030020;28;20124;-88
2021/11/20 00:45:52;;;;;;;34.67;18.57;;;;;;;;;;5025429;28;20026;-87
2021/11/20 00:48:20;;;;;;;38.38;19.42;;;;;;;;;;5036345;28;20418;-86
2021/11/20 00:50:48;;;;;;;35.95;18.73;;;;;;;;;;5036173;28;20037;-86
2021/11/20 00:53:14;;;;;;;42.47;20.50;;;;;;;;;;5037348;28;20049;-87
2021/11/20 00:55:41;;;;;;;35.17;19.48;;;;;;;;;;5037612;28;20029;-88
2021/11/20 00:58:07;;;;;;;37.45;17.38;;;;;;;;;;5030756;28;20037;-84
2021/11/20 01:00:36;;;;;;;38.92;18.85;;;;;;;;;;5038853;28;20083;-85
2021/11/20 01:03:03;;;;;;;33.42;18.20;;;;;;;;;;5038690;28;20564;-87
2021/11/20 01:05:29;;;;;;;34.20;18.63;;;;;;;;;;5042305;28;20029;-86
2021/11/20 01:07:56;;;;;;;36.80;18.48;;;;;;;;;;5043470;28;20032;-89
2021/11/20 01:10:24;;;;;;;40.78;19.15;;;;;;;;;;5029510;28;20105;-86
2021/11/20 01:12:50;;;;;;;34.75;18.58;;;;;;;;;;5033470;28;20025;-87
2021/11/20 01:15:19;;;;;;;32.00;17.65;;;;;;;;;;5046398;28;20497;-84
2021/11/20 01:17:46;;;;;;;33.50;17.75;;;;;;;;;;5030275;28;20033;-86
2021/11/20 01:20:12;;;;;;;35.15;18.67;;;;;;;;;;5036782;28;20089;-88
2021/11/20 01:22:38;;;;;;;33.25;18.70;;;;;;;;;;5032827;28;20025;-88
2021/11/20 01:25:05;;;;;;;35.50;18.30;;;;;;;;;;5035582;28;20033;-85
2021/11/20 01:27:31;;;;;;;36.40;18.80;;;;;;;;;;5035005;28;20025;-84
2021/11/20 01:29:57;;;;;;;35.75;19.05;;;;;;;;;;5028949;28;20021;-87
2021/11/20 01:32:23;;;;;;;41.33;19.38;;;;;;;;;;5033493;28;20029;-84
2021/11/20 01:34:49;;;;;;;41.60;20.35;;;;;;;;;;5028405;28;20500;-85
2021/11/20 01:37:15;;;;;;;35.33;19.00;;;;;;;;;;5055232;28;20570;-86
2021/11/20 01:39:42;;;;;;;37.97;19.95;;;;;;;;;;5035227;28;20028;-87
2021/11/20 01:42:20;;;;;;;51.47;20.77;;;;;;;;;;5031686;28;20040;-84
2021/11/20 01:44:49;;;;;;;35.55;18.50;;;;;;;;;;5031613;28;20025;-87
2021/11/20 01:47:22;;;;;;;33.35;18.15;;;;;;;;;;5039597;28;20033;-83
2021/11/20 01:49:51;;;;;;;38.20;19.10;;;;;;;;;;5043665;28;20025;-86
2021/11/20 01:52:29;;;;;;;38.95;19.20;;;;;;;;;;5028992;28;20507;-84
2021/11/20 01:55:04;;;;;;;35.58;18.13;;;;;;;;;;5034371;28;20577;-86
2021/11/20 01:57:45;;;;;;;37.72;19.20;;;;;;;;;;5056077;28;20032;-87
2021/11/20 02:00:16;;;;;;;38.25;18.58;;;;;;;;;;5051634;28;20037;-86
2021/11/20 02:02:42;;;;;;;38.35;19.52;;;;;;;;;;5036913;28;20679;-85
2021/11/20 02:05:07;;;;;;;38.53;21.02;;;;;;;;;;5029997;28;20063;-86
2021/11/20 02:07:39;;;;;;;42.13;21.20;;;;;;;;;;5036950;28;20044;-85
2021/11/20 02:10:18;;;;;;;38.85;19.90;;;;;;;;;;5029705;28;20037;-86
2021/11/20 02:12:52;;;;;;;35.83;18.85;;;;;;;;;;5031817;28;20385;-84
2021/11/20 02:15:25;;;;;;;39.65;20.38;;;;;;;;;;5040353;28;20080;-87
2021/11/20 02:17:52;;;;;;;38.47;19.80;;;;;;;;;;5030923;28;20041;-85
2021/11/20 02:20:23;;;;;;;42.45;20.80;;;;;;;;;;5058635;28;20041;-87
2021/11/20 02:22:52;;;;;;;39.03;19.80;;;;;;;;;;5054986;28;20543;-86
2021/11/20 02:25:20;;;;;;;43.58;20.65;;;;;;;;;;5046580;28;20032;-86
2021/11/20 02:27:48;;;;;;;40.15;20.55;;;;;;;;;;5041472;28;20496;-87
2021/11/20 02:30:20;;;;;;;38.38;20.15;;;;;;;;;;5042404;28;20037;-87
2021/11/20 02:32:48;;;;;;;37.95;20.63;;;;;;;;;;5059075;28;20451;-85
2021/11/20 02:35:18;;;;;;;40.95;20.65;;;;;;;;;;5058441;28;20025;-85
2021/11/20 02:37:45;;;;;;;40.77;21.07;;;;;;;;;;5042286;28;20036;-85
2021/11/20 02:40:11;;;;;;;39.47;20.20;;;;;;;;;;5038666;28;20025;-86
2021/11/20 02:42:37;;;;;;;42.03;21.23;;;;;;;;;;5056697;28;20079;-85
2021/11/20 02:45:11;;;;;;;41.50;21.25;;;;;;;;;;5045301;28;20036;-87
2021/11/20 02:47:38;;;;;;;42.58;21.65;;;;;;;;;;5047870;28;20022;-87
2021/11/20 02:50:05;;;;;;;38.95;20.02;;;;;;;;;;5034796;28;20025;-82
2021/11/20 02:52:31;;;;;;;43.60;22.63;;;;;;;;;;5029085;28;20047;-86
2021/11/20 02:54:57;;;;;;;42.58;20.45;;;;;;;;;;5015417;28;20030;-85
2021/11/20 02:57:32;;;;;;;40.08;20.90;;;;;;;;;;5031432;28;20029;-86
2021/11/20 02:59:58;;;;;;;41.88;20.05;;;;;;;;;;5026827;28;20094;-85
2021/11/20 03:02:24;;;;;;;41.88;21.10;;;;;;;;;;5041546;28;20020;-84
2021/11/20 03:04:50;;;;;;;43.00;21.73;;;;;;;;;;5043897;28;20153;-85
2021/11/20 03:07:17;;;;;;;40.92;21.60;;;;;;;;;;5058739;28;20028;-85
2021/11/20 03:09:43;;;;;;;38.63;20.33;;;;;;;;;;5039656;28;20088;-89
2021/11/20 03:12:12;;;;;;;40.28;20.50;;;;;;;;;;5039668;28;20064;-87
2021/11/20 03:14:39;;;;;;;42.00;21.42;;;;;;;;;;5036878;28;20052;-87
2021/11/20 03:17:06;;;;;;;38.63;20.13;;;;;;;;;;5051714;28;20033;-84
2021/11/20 03:19:34;;;;;;;41.30;21.55;;;;;;;;;;5035797;28;20025;-86
2021/11/20 03:22:01;;;;;;;44.67;21.63;;;;;;;;;;5039079;28;20036;-85
2021/11/20 03:24:28;;;;;;;43.97;21.02;;;;;;;;;;5040860;28;20082;-82
2021/11/20 03:26:57;;;;;;;43.30;20.20;;;;;;;;;;5044723;28;20092;-83
2021/11/20 03:29:24;;;;;;;38.05;18.30;;;;;;;;;;5008368;28;20096;-86
2021/11/20 03:31:52;;;;;;;39.42;18.48;;;;;;;;;;5028318;28;20033;-87
2021/11/20 03:34:19;;;;;;;33.30;17.00;;;;;;;;;;5039054;28;20028;-85
2021/11/20 03:36:45;;;;;;;32.03;15.93;;;;;;;;;;5044323;28;20120;-81
2021/11/20 03:39:11;;;;;;;33.33;16.70;;;;;;;;;;5020649;28;20028;-84
2021/11/20 03:41:37;;;;;;;32.70;14.57;;;;;;;;;;5046897;28;20037;-85
2021/11/20 03:44:03;;;;;;;28.50;14.15;;;;;;;;;;5025687;28;20031;-86
2021/11/20 03:46:29;;;;;;;26.58;13.73;;;;;;;;;;5032005;28;20188;-87
2021/11/20 03:48:56;;;;;;;29.67;13.63;;;;;;;;;;5034561;28;20068;-84
2021/11/20 03:51:22;;;;;;;29.60;14.80;;;;;;;;;;5032693;28;20029;-86
2021/11/20 03:53:48;;;;;;;28.88;15.30;;;;;;;;;;5048792;28;20033;-85
2021/11/20 03:56:14;;;;;;;27.38;14.52;;;;;;;;;;5028706;28;20564;-81
2021/11/20 03:58:40;;;;;;;30.65;14.98;;;;;;;;;;5034503;28;20031;-85
2021/11/20 04:01:08;;;;;;;28.50;15.10;;;;;;;;;;5032466;28;20181;-85
2021/11/20 04:03:35;;;;;;;31.60;15.70;;;;;;;;;;5029170;28;20029;-87
2021/11/20 04:06:01;;;;;;;31.45;14.25;;;;;;;;;;5042676;28;20039;-84
2021/11/20 04:08:28;;;;;;;30.55;15.18;;;;;;;;;;5053648;28;20028;-85
2021/11/20 04:10:56;;;;;;;25.85;14.15;;;;;;;;;;5042837;28;20049;-87
2021/11/20 04:13:22;;;;;;;34.53;16.10;;;;;;;;;;5051080;28;20425;-86
2021/11/20 04:15:49;;;;;;;30.58;16.05;;;;;;;;;;5047103;28;20034;-85
2021/11/20 04:18:15;;;;;;;32.40;15.77;;;;;;;;;;5025332;28;20060;-85
2021/11/20 04:20:45;;;;;;;28.52;14.07;;;;;;;;;;5022746;28;20095;-87
2021/11/20 04:23:11;;;;;;;28.63;14.55;;;;;;;;;;5045928;28;20028;-88
2021/11/20 04:25:38;;;;;;;27.83;15.13;;;;;;;;;;5029246;28;20060;-85
2021/11/20 04:28:04;;;;;;;30.50;15.95;;;;;;;;;;5023105;28;20021;-81
2021/11/20 04:30:30;;;;;;;28.80;16.02;;;;;;;;;;5035210;28;20034;-85
2021/11/20 04:32:57;;;;;;;29.80;14.40;;;;;;;;;;5022119;28;20049;-82
2021/11/20 04:35:25;;;;;;;33.55;15.50;;;;;;;;;;5015907;28;20106;-83
2021/11/20 04:37:51;;;;;;;37.53;15.52;;;;;;;;;;5040375;28;20025;-84
2021/11/20 04:40:18;;;;;;;33.40;16.15;;;;;;;;;;5036802;28;20049;-86
2021/11/20 04:42:45;;;;;;;33.80;15.02;;;;;;;;;;5030214;28;20120;-86
2021/11/20 04:45:13;;;;;;;36.72;15.60;;;;;;;;;;5017052;28;20109;-81
2021/11/20 04:47:39;;;;;;;40.67;15.30;;;;;;;;;;5041124;28;20021;-85
2021/11/20 04:50:08;;;;;;;38.85;16.08;;;;;;;;;;5020270;28;20032;-81
2021/11/20 04:52:34;;;;;;;36.28;14.90;;;;;;;;;;5029273;28;20037;-87
2021/11/20 04:55:00;;;;;;;36.25;16.65;;;;;;;;;;5031004;28;20032;-81
2021/11/20 04:57:26;;;;;;;32.33;16.15;;;;;;;;;;5020478;28;20029;-87
2021/11/20 04:59:52;;;;;;;40.58;15.45;;;;;;;;;;5024614;28;20143;-86
2021/11/20 05:02:18;;;;;;;32.95;15.60;;;;;;;;;;5045361;28;20048;-87
2021/11/20 05:04:44;;;;;;;30.27;14.30;;;;;;;;;;5048526;28;20116;-85
2021/11/20 05:07:11;;;;;;;30.73;15.50;;;;;;;;;;5026639;28;20029;-86
2021/11/20 05:09:37;;;;;;;37.05;16.00;;;;;;;;;;5024485;28;20029;-82
2021/11/20 05:12:07;;;;;;;36.78;15.40;;;;;;;;;;5033655;28;20032;-87
2021/11/20 05:14:33;;;;;;;32.47;13.73;;;;;;;;;;5030032;28;20027;-85
2021/11/20 05:16:59;;;;;;;40.08;15.93;;;;;;;;;;5030051;28;20031;-87
2021/11/20 05:19:25;;;;;;;34.95;16.13;;;;;;;;;;5029858;28;20093;-86
2021/11/20 05:21:52;;;;;;;37.72;15.68;;;;;;;;;;5048226;28;20083;-86
2021/11/20 05:24:18;;;;;;;40.72;16.73;;;;;;;;;;5025878;28;20028;-85
2021/11/20 05:26:44;;;;;;;45.95;16.38;;;;;;;;;;5035656;28;20048;-86
2021/11/20 05:29:22;;;;;;;45.72;16.73;;;;;;;;;;5055280;28;20033;-86
2021/11/20 05:31:49;;;;;;;45.70;16.92;;;;;;;;;;5052175;28;20099;-85
2021/11/20 05:34:15;;;;;;;59.45;17.63;;;;;;;;;;5037489;28;20029;-85
2021/11/20 05:36:41;;;;;;;45.58;18.70;;;;;;;;;;5047831;28;20642;-86
2021/11/20 05:39:07;;;;;;;86.72;19.05;;;;;;;;;;5035263;28;20040;-86
2021/11/20 05:41:34;;;;;;;51.80;18.58;;;;;;;;;;5032278;28;20110;-87
2021/11/20 05:44:00;;;;;;;46.65;18.77;;;;;;;;;;5050825;28;20126;-82
2021/11/20 05:46:27;;;;;;;50.15;17.67;;;;;;;;;;5031436;28;20025;-87
2021/11/20 05:48:53;;;;;;;50.03;17.73;;;;;;;;;;5047704;28;20028;-86
2021/11/20 05:51:20;;;;;;;66.57;20.05;;;;;;;;;;5033410;28;20039;-86
2021/11/20 05:53:46;;;;;;;70.40;19.27;;;;;;;;;;5029769;28;20029;-86
2021/11/20 05:56:12;;;;;;;63.42;19.60;;;;;;;;;;5046681;28;20551;-87
2021/11/20 05:58:38;;;;;;;81.95;19.10;;;;;;;;;;5029066;28;20033;-86
2021/11/20 06:01:06;;;;;;;55.63;18.40;;;;;;;;;;5026923;28;20136;-86
2021/11/20 06:03:33;;;;;;;50.42;18.67;;;;;;;;;;5032165;28;20037;-85
2021/11/20 06:05:59;;;;;;;65.38;18.83;;;;;;;;;;5032605;28;20396;-83
2021/11/20 06:08:25;;;;;;;67.53;16.35;;;;;;;;;;5028299;28;20021;-87
2021/11/20 06:10:53;;;;;;;68.15;16.85;;;;;;;;;;5051008;28;20068;-86
2021/11/20 06:13:19;;;;;;;51.50;15.23;;;;;;;;;;5035459;28;20037;-85
2021/11/20 06:15:45;;;;;;;69.45;16.30;;;;;;;;;;5035497;28;20430;-88
2021/11/20 06:18:11;;;;;;;52.95;15.80;;;;;;;;;;5053292;28;20036;-86
2021/11/20 06:20:38;;;;;;;55.97;16.83;;;;;;;;;;5031649;28;20510;-87
2021/11/20 06:23:04;;;;;;;90.72;19.08;;;;;;;;;;5051273;28;20075;-85
2021/11/20 06:25:31;;;;;;;68.50;16.02;;;;;;;;;;5032307;28;20039;-89
2021/11/20 06:27:57;;;;;;;57.13;15.05;;;;;;;;;;5030894;28;20032;-82
2021/11/20 06:30:25;;;;;;;118.00;17.67;;;;;;;;;;5032190;28;20029;-83
2021/11/20 06:32:51;;;;;;;64.50;15.73;;;;;;;;;;5027748;28;22454;-83
2021/11/20 06:35:18;;;;;;;160.27;18.00;;;;;;;;;;5035802;28;20108;-85
2021/11/20 06:37:45;;;;;;;84.40;16.25;;;;;;;;;;5041210;28;20020;-87
2021/11/20 06:40:16;;;;;;;134.70;17.15;;;;;;;;;;5038016;28;20021;-88
2021/11/20 06:42:44;;;;;;;75.05;17.27;;;;;;;;;;5039946;28;20114;-85
2021/11/20 06:45:13;;;;;;;54.33;16.15;;;;;;;;;;5051256;28;20024;-87
2021/11/20 06:47:39;;;;;;;69.60;16.40;;;;;;;;;;5050884;28;20029;-85
2021/11/20 06:50:05;;;;;;;59.35;16.45;;;;;;;;;;5029964;28;20053;-84
2021/11/20 06:52:31;;;;;;;51.85;16.35;;;;;;;;;;5029966;28;20025;-86
2021/11/20 06:54:58;;;;;;;59.83;16.75;;;;;;;;;;5046158;28;20036;-81
2021/11/20 07:00:26;;;;;;;38.38;12.43;;;6.60;99.90;;;;;;5056170;28;20063;-80
2021/11/20 07:02:55;;;;;;;40.72;13.02;;;;;;;;;;5034253;28;20021;-85
2021/11/20 07:05:21;;;;;;;41.05;12.60;;;;;;;;;;5031600;28;21548;-83
2021/11/20 07:07:48;;;;;;;55.97;12.75;;;6.50;99.90;;;;;;5049901;28;20470;-82
2021/11/20 07:10:16;;;;;;;29.27;10.50;;;;;;;;;;5036744;28;20102;-84
2021/11/20 07:12:42;;;;;;;33.03;11.38;;;;;;;;;;5027196;28;20121;-87
2021/11/20 07:15:09;;;;;;;49.60;11.50;;;;;;;;;;5049665;28;20037;-89
2021/11/20 07:17:35;;;;;;;51.03;13.15;;;;;;;;;;5046799;28;20026;-90
2021/11/20 07:20:01;;;;;;;57.25;12.50;;;;;;;;;;5024267;28;20025;-87
2021/11/20 07:22:27;;;;;;;31.65;10.88;;;;;;;;;;5026587;28;20025;-86
2021/11/20 07:24:53;;;;;;;25.40;10.60;;;;;;;;;;5036427;28;20037;-84
2021/11/20 07:27:20;;;;;;;24.27;10.52;;;;;;;;;;5026002;28;20116;-88
2021/11/20 07:29:46;;;;;;;19.80;9.90;;;;;;;;;;5035147;28;20063;-87
2021/11/20 07:32:12;;;;;;;25.23;10.43;;;;;;;;;;5032970;28;20049;-87
2021/11/20 07:34:38;;;;;;;34.70;10.25;;;;;;;;;;5042713;28;20072;-86
2021/11/20 07:37:05;;;;;;;25.65;11.23;;;;;;;;;;5041389;28;20114;-84
2021/11/20 07:39:32;;;;;;;19.42;9.73;;;;;;;;;;5052415;28;20033;-88
2021/11/20 07:41:58;;;;;;;23.23;8.20;;;;;;;;;;5039955;28;20460;-88
2021/11/20 07:44:24;;;;;;;23.58;9.73;;;;;;;;;;5040369;28;20051;-87
2021/11/20 07:46:50;;;;;;;29.02;9.88;;;;;;;;;;5052478;28;20040;-89
2021/11/20 07:49:16;;;;;;;38.17;9.57;;;;;;;;;;5035296;28;20033;-88
2021/11/20 07:51:43;;;;;;;53.10;12.05;;;;;;;;;;5040456;28;20033;-87
2021/11/20 07:54:09;;;;;;;68.55;12.65;;;;;;;;;;5033785;28;20029;-87
2021/11/20 07:56:41;;;;;;;29.23;10.32;;;;;;;;;;5062427;28;20032;-91
2021/11/20 07:59:11;;;;;;;92.95;13.40;;;;;;;;;;5043987;28;20133;-87
2021/11/20 08:01:38;;;;;;;100.22;14.27;;;;;;;;;;5054814;28;20056;-90
2021/11/20 08:04:04;;;;;;;36.65;11.52;;;;;;;;;;5060855;28;20024;-88
2021/11/20 08:06:31;;;;;;;41.13;11.70;;;;;;;;;;5033573;28;20100;-89
2021/11/20 08:09:02;;;;;;;87.90;13.25;;;;;;;;;;5054643;28;20060;-84
2021/11/20 08:11:29;;;;;;;37.08;12.15;;;;;;;;;;5052072;28;20021;-89
2021/11/20 08:13:55;;;;;;;35.40;10.68;;;;;;;;;;5038229;28;20033;-86
2021/11/20 08:16:21;;;;;;;42.28;11.38;;;;;;;;;;5036210;28;20140;-90
2021/11/20 08:18:48;;;;;;;32.95;10.18;;;;;;;;;;5037219;28;20413;-86
2021/11/20 08:21:14;;;;;;;41.45;10.05;;;;;;;;;;5037491;28;20183;-87
2021/11/20 08:23:41;;;;;;;22.52;9.50;;;;;;;;;;5058868;28;20128;-86
2021/11/20 08:26:07;;;;;;;16.17;8.73;;;;;;;;;;5040521;28;20032;-88
2021/11/20 08:28:33;;;;;;;16.17;7.90;;;;;;;;;;5057187;28;20057;-90
2021/11/20 08:31:00;;;;;;;24.95;8.35;;;;;;;;;;5035743;28;20029;-87
2021/11/20 08:33:26;;;;;;;15.45;7.72;;;;;;;;;;5051046;28;20025;-86
2021/11/20 08:35:54;;;;;;;16.90;7.25;;;;;;;;;;5037004;28;20097;-89
2021/11/20 08:38:20;;;;;;;28.92;8.30;;;;;;;;;;5054973;28;20029;-87
2021/11/20 08:40:47;;;;;;;29.38;8.00;;;;;;;;;;5036292;28;20060;-85
2021/11/20 08:43:14;;;;;;;16.75;8.13;;;;;;;;;;5035677;28;20033;-86
2021/11/20 08:45:43;;;;;;;20.67;8.48;;;;;;;;;;5032307;28;20060;-85
2021/11/20 08:48:11;;;;;;;17.25;8.82;;;;;;;;;;5033262;28;20025;-84
2021/11/20 08:50:39;;;;;;;14.77;7.47;;;;;;;;;;5032718;28;20033;-86
2021/11/20 08:53:06;;;;;;;21.17;7.78;;;;;;;;;;5040826;28;20258;-85
2021/11/20 08:55:32;;;;;;;18.02;8.57;;;;;;;;;;5031841;28;20028;-88
2021/11/20 08:57:58;;;;;;;15.07;8.55;;;;;;;;;;5031210;28;20064;-87
2021/11/20 09:00:33;;;;;;;22.38;9.32;;;;;;;;;;5039015;28;20028;-88
2021/11/20 09:03:09;;;;;;;19.35;8.88;;;;;;;;;;5019921;28;20033;-90
2021/11/20 09:05:42;;;;;;;21.55;9.68;;;;;;;;;;5025973;28;20018;-89
2021/11/20 09:08:13;;;;;;;20.88;8.90;;;;;;;;;;5039977;28;20057;-89
2021/11/20 09:10:42;;;;;;;18.63;8.98;;;;;;;;;;5054063;28;20040;-90
2021/11/20 09:13:08;;;;;;;16.83;9.23;;;;;;;;;;5040180;28;20040;-86
2021/11/20 09:15:43;;;;;;;17.20;8.38;;;;;;;;;;5047812;28;20107;-89
2021/11/20 09:18:09;;;;;;;19.15;9.63;;;;;;;;;;5049489;28;20029;-88
2021/11/20 09:20:36;;;;;;;18.30;8.40;;;;;;;;;;5036695;28;20063;-88
2021/11/20 09:23:02;;;;;;;14.82;8.30;;;;;;;;;;5034659;28;20072;-88
2021/11/20 09:25:28;;;;;;;18.30;8.30;;;;;;;;;;5039474;28;20041;-88
2021/11/20 09:27:54;;;;;;;16.50;8.80;;;;;;;;;;5035367;28;20029;-87
2021/11/20 09:30:26;;;;;;;17.52;8.82;;;;;;;;;;5030310;28;20029;-87
2021/11/20 09:32:52;;;;;;;17.75;8.23;;;;;;;;;;5032451;28;20575;-88
2021/11/20 09:35:18;;;;;;;32.88;10.57;;;;;;;;;;5030670;28;20060;-88
2021/11/20 09:37:44;;;;;;;18.00;8.90;;;;;;;;;;5036566;28;20028;-88
2021/11/20 09:40:11;;;;;;;16.50;8.60;;;;;;;;;;5051149;28;20025;-88
2021/11/20 09:42:37;;;;;;;17.23;8.63;;;;;;;;;;5033364;28;20040;-87
2021/11/20 09:45:08;;;;;;;19.60;9.95;;;;;;;;;;5035503;28;20490;-88
2021/11/20 09:47:36;;;;;;;45.83;12.40;;;;;;;;;;5040339;28;20021;-88
2021/11/20 09:50:20;;;;;;;20.30;10.35;;;;;;;;;;5044314;28;20120;-90
2021/11/20 09:52:47;;;;;;;35.33;10.02;;;;;;;;;;5029572;28;20040;-89
2021/11/20 09:55:15;;;;;;;17.42;9.27;;;;;;;;;;5034969;28;20017;-88
2021/11/20 09:57:45;;;;;;;30.27;9.55;;;;;;;;;;5032655;28;20032;-89
2021/11/20 10:00:44;;;;;;;18.50;9.18;;;;;;;;;;5050373;28;20496;-89
2021/11/20 10:03:11;;;;;;;30.95;9.15;;;;;;;;;;4993646;28;20038;-89
2021/11/20 10:05:40;;;;;;;22.95;9.63;;;;;;;;;;5034002;28;20643;-88
2021/11/20 10:08:32;;;;;;;18.67;9.63;;;;;;;;;;5032687;28;20488;-88
2021/11/20 10:11:14;;;;;;;19.65;9.65;;;;;;;;;;5032350;28;20325;-88
2021/11/20 10:13:55;;;;;;;18.83;9.50;;;;;;;;;;5039734;28;20363;-87
2021/11/20 10:16:24;;;;;;;18.50;9.13;;;;;;;;;;5034413;28;20034;-89
2021/11/20 10:18:51;;;;;;;17.13;8.95;;;;;;;;;;5023218;28;20018;-90
2021/11/20 10:21:22;;;;;;;19.20;8.95;;;;;;;;;;5027919;28;20797;-86
2021/11/20 10:24:07;;;;;;;15.07;7.82;;;;;;;;;;5030902;28;20100;-89
2021/11/20 10:26:36;;;;;;;15.43;8.57;;;;;;;;;;5023060;28;20103;-88
2021/11/20 10:29:20;;;;;;;16.10;8.63;;;;;;;;;;5075238;22;20036;-86
2021/11/20 10:32:19;;;;;;;16.85;8.55;;;7.60;99.90;;;;;;5053347;28;20095;-88
2021/11/20 10:34:55;;;;;;;17.10;8.00;;;;;;;;;;5052519;28;20033;-85
2021/11/20 10:37:36;;;;;;;15.60;8.23;;;;;;;;;;5005364;28;20045;-88
2021/11/20 10:40:20;;;;;;;16.20;8.55;;;7.90;99.90;;;;;;5017883;28;20036;-86
2021/11/20 10:42:59;;;;;;;15.65;8.20;;;;;;;;;;4995803;28;20560;-84
2021/11/20 10:45:35;;;;;;;15.02;8.60;;;;;;;;;;5021050;28;20022;-87
2021/11/20 10:48:23;;;;;;;18.38;9.40;;;;;;;;;;5050142;28;20084;-87
2021/11/20 10:51:17;;;;;;;16.17;8.65;;;8.00;99.90;;;;;;5050698;28;20025;-87
2021/11/20 10:53:51;;;;;;;15.57;8.80;;;;;;;;;;5051843;28;20019;-87
2021/11/20 10:56:27;;;;;;;15.57;8.75;;;;;;;;;;5050951;28;20029;-87
2021/11/20 10:58:55;;;;;;;18.00;8.95;;;;;;;;;;5037366;28;20455;-85
2021/11/20 11:01:33;;;;;;;14.00;8.07;;;;;;;;;;5026883;28;20017;-88
2021/11/20 11:04:08;;;;;;;17.95;9.02;;;8.10;99.90;;;;;;5035821;28;20025;-82
2021/11/20 11:06:51;;;;;;;17.08;8.65;;;8.20;99.90;;;;;;5030410;28;20091;-86
2021/11/20 11:09:18;;;;;;;15.10;8.50;;;;;;;;;;5032728;28;20017;-88
2021/11/20 11:12:09;;;;;;;14.75;8.07;;;8.10;99.90;;;;;;5028762;28;20556;-85
2021/11/20 11:14:46;;;;;;;;;;;8.10;99.90;;;;;;5046435;28;20443;-81
2021/11/20 11:17:41;;;;;;;16.02;8.32;;;8.20;99.90;;;;;;5031752;28;19908;-85
2021/11/20 11:20:12;;;;;;;15.05;8.63;;;;;;;;;;5021333;28;20025;-88
2021/11/20 11:22:54;;;;;;;16.33;8.80;;;8.20;99.90;;;;;;5033747;28;20052;-84
2021/11/20 11:25:22;;;;;;;15.32;8.43;;;;;;;;;;5028186;28;20037;-82
2021/11/20 11:27:51;;;;;;;14.73;8.57;;;;;;;;;;5031499;28;20033;-88
2021/11/20 11:30:17;;;;;;;18.90;9.38;;;;;;;;;;5026385;28;20036;-81
2021/11/20 11:32:45;;;;;;;16.23;9.75;;;;;;;;;;5038361;28;20539;-85
2021/11/20 11:35:11;;;;;;;17.17;9.10;;;;;;;;;;5063532;28;20070;-83
2021/11/20 11:37:55;;;;;;;16.35;8.95;;;;;;;;;;5037937;28;20020;-86
2021/11/20 11:40:43;;;;;;;17.70;9.70;;;7.00;99.90;;;;;;5032205;28;20021;-82
2021/11/20 11:43:21;;;;;;;16.45;9.10;;;8.60;99.90;;;;;;5031994;28;20025;-82
2021/11/20 11:46:06;;;;;;;14.40;8.50;;;8.70;99.90;;;;;;5049162;28;20036;-88
2021/11/20 11:49:10;;;;;;;17.10;8.90;;;8.80;99.90;;;;;;5043503;28;20028;-86
2021/11/20 11:51:46;;;;;;;17.42;8.65;;;8.70;99.90;;;;;;5029995;28;20033;-85
2021/11/20 11:54:12;;;;;;;13.95;7.82;;;;;;;;;;5033084;28;20734;-86
2021/11/20 11:56:58;;;;;;;14.30;8.23;;;8.80;99.90;;;;;;5043910;28;20031;-87
2021/11/20 11:59:36;;;;;;;14.10;7.63;;;9.00;99.90;;;;;;5028306;28;20033;-83
2021/11/20 12:02:14;;;;;;;13.52;7.65;;;;;;;;;;5028394;28;20130;-84
2021/11/20 12:04:51;;;;;;;13.10;7.05;;;9.10;99.90;;;;;;5030648;28;20026;-85
2021/11/20 12:07:41;;;;;;;15.00;8.38;;;9.20;99.90;;;;;;5027823;28;20033;-88
2021/11/20 12:10:10;;;;;;;13.07;7.18;;;;;;;;;;5029888;28;20041;-84
2021/11/20 12:12:39;;;;;;;12.65;7.15;;;;;;;;;;5029141;28;20037;-84
2021/11/20 12:15:10;;;;;;;12.80;7.20;;;;;;;;;;5025549;28;20320;-86
2021/11/20 12:18:15;;;;;;;11.88;7.65;;;;;;;;;;5047040;28;20025;-85
2021/11/20 12:21:18;;;;;;;11.98;7.28;;;9.30;99.90;;;;;;4947222;28;20031;-83
2021/11/20 12:23:50;;;;;;;14.95;8.20;;;9.20;99.90;;;;;;4953327;28;20061;-85
2021/11/20 12:26:40;;;;;;;15.93;9.05;;;9.20;99.90;;;;;;5025240;28;20065;-86
2021/11/20 12:29:25;;;;;;;15.43;8.20;;;;;;;;;;5030323;28;20025;-81
2021/11/20 12:32:07;;;;;;;16.48;8.80;;;;;;;;;;5031344;28;20131;-81
2021/11/20 12:34:36;;;;;;;14.07;8.00;;;;;;;;;;5039549;28;20017;-85
2021/11/20 12:37:41;;;;;;;14.52;8.00;;;9.00;99.90;;;;;;5028840;28;20613;-85
2021/11/20 12:40:19;;;;;;;13.90;8.07;;;8.90;99.90;;;;;;5047232;28;20091;-85
2021/11/20 12:43:09;;;;;;;15.32;9.18;;;8.80;99.90;;;;;;5026515;28;20094;-84
2021/11/20 12:45:38;;;;;;;14.23;8.52;;;;;;;;;;5027525;28;20029;-86
2021/11/20 12:48:04;;;;;;;15.65;9.07;;;;;;;;;;5033398;28;20358;-83
2021/11/20 12:50:46;;;;;;;14.38;8.68;;;;;;;;;;5035643;28;20035;-84
2021/11/20 12:53:15;;;;;;;17.02;8.63;;;;;;;;;;5048857;28;20028;-85
2021/11/20 12:55:44;;;;;;;16.30;8.90;;;;;;;;;;5029007;28;20036;-84
2021/11/20 12:58:16;;;;;;;15.95;9.43;;;;;;;;;;5048892;28;20033;-81
2021/11/20 13:00:45;;;;;;;15.07;8.68;;;;;;;;;;5032430;28;20505;-85
2021/11/20 13:03:11;;;;;;;16.77;9.48;;;;;;;;;;5035657;28;20150;-85
2021/11/20 13:05:40;;;;;;;14.80;9.00;;;;;;;;;;5029525;28;20039;-82
2021/11/20 13:08:22;;;;;;;17.73;9.85;;;;;;;;;;5030269;28;20087;-83
2021/11/20 13:11:00;;;;;;;19.85;9.63;;;;;;;;;;5043701;28;20043;-83
2021/11/20 13:13:39;;;;;;;20.15;10.50;;;;;;;;;;5031906;28;20033;-86
2021/11/20 13:16:20;;;;;;;17.55;10.00;;;9.70;99.90;;;;;;5031944;28;20021;-87
2021/11/20 13:19:00;;;;;;;;;;;9.70;99.90;;;;;;5029806;28;20026;-81
2021/11/20 13:21:29;;;;;;;15.48;8.43;;;;;;;;;;5031087;28;19979;-83
2021/11/20 13:24:06;;;;;;;17.88;9.50;;;;;;;;;;5045713;28;20025;-85
2021/11/20 13:26:32;;;;;;;17.92;9.52;;;;;;;;;;5030928;28;20033;-82
2021/11/20 13:28:59;;;;;;;16.60;9.10;;;9.70;99.90;;;;;;5032439;28;20036;-84
2021/11/20 13:31:36;;;;;;;19.20;10.48;;;;;;;;;;5026294;28;20501;-86
2021/11/20 13:34:03;;;;;;;17.38;9.82;;;;;;;;;;5023465;28;20056;-85
2021/11/20 13:36:33;;;;;;;15.30;8.70;;;9.80;99.90;;;;;;5026612;28;20089;-83
2021/11/20 13:39:00;;;;;;;18.55;9.50;;;;;;;;;;5024320;28;20029;-88
2021/11/20 13:41:26;;;;;;;16.45;9.38;;;;;;;;;;5028953;28;20037;-84
2021/11/20 13:43:54;;;;;;;15.88;9.05;;;;;;;;;;5025285;28;20085;-84
2021/11/20 13:46:21;;;;;;;16.27;9.10;;;;;;;;;;5026291;28;20067;-88
2021/11/20 13:48:47;;;;;;;16.73;9.45;;;;;;;;;;5025884;28;20063;-85
2021/11/20 13:51:18;;;;;;;17.45;9.27;;;;;;;;;;5029329;28;20039;-87
2021/11/20 13:53:49;;;;;;;19.08;10.38;;;;;;;;;;5025156;28;20029;-82
2021/11/20 13:56:15;;;;;;;15.20;9.45;;;;;;;;;;5024709;28;20064;-84
2021/11/20 13:58:41;;;;;;;19.52;9.43;;;;;;;;;;5025571;28;20032;-81
2021/11/20 14:01:13;;;;;;;17.00;9.65;;;;;;;;;;5033690;28;20010;-84
2021/11/20 14:03:50;;;;;;;16.55;9.57;;;;;;;;;;5043881;28;20028;-82
2021/11/20 14:06:16;;;;;;;16.42;9.27;;;;;;;;;;5044221;28;20100;-85
2021/11/20 14:08:43;;;;;;;17.48;9.50;;;;;;;;;;5044373;28;20028;-85
2021/11/20 14:11:12;;;;;;;20.17;10.80;;;;;;;;;;5053440;28;20033;-85
2021/11/20 14:13:38;;;;;;;17.92;9.50;;;;;;;;;;5047120;28;20085;-85
2021/11/20 14:16:06;;;;;;;18.88;10.95;;;;;;;;;;5046217;28;20096;-86
2021/11/20 14:18:46;;;;;;;18.17;10.00;;;9.80;99.90;;;;;;5041577;28;20033;-84
2021/11/20 14:21:13;;;;;;;18.00;9.23;;;;;;;;;;5047838;28;20036;-84
2021/11/20 14:23:44;;;;;;;19.10;9.70;;;;;;;;;;5046480;28;20111;-86
2021/11/20 14:26:10;;;;;;;17.25;9.65;;;;;;;;;;5043280;28;20025;-86
2021/11/20 14:28:37;;;;;;;20.58;10.55;;;;;;;;;;5062130;28;20033;-84
2021/11/20 14:31:07;;;;;;;19.75;10.48;;;;;;;;;;5042040;28;20076;-83